createdAt,value
2019-05-19T00:01:02.970Z,81.30
2019-05-19T00:03:24.218Z,81.70
2019-05-19T00:05:45.610Z,81.70
2019-05-19T00:08:07.937Z,81.30
2019-05-19T00:10:30.024Z,81.60
2019-05-19T00:12:52.301Z,81.70
2019-05-19T00:15:13.734Z,81.50
2019-05-19T00:17:35.016Z,81.40
2019-05-19T00:19:56.395Z,81.30
2019-05-19T00:22:24.006Z,81.60
2019-05-19T00:24:47.347Z,82.00
2019-05-19T00:27:09.819Z,81.90
2019-05-19T00:29:31.451Z,81.80
2019-05-19T00:31:52.839Z,81.60
2019-05-19T00:34:14.423Z,81.50
2019-05-19T00:36:35.863Z,81.90
2019-05-19T00:38:57.276Z,82.20
2019-05-19T00:41:19.061Z,82.40
2019-05-19T00:43:40.585Z,81.70
2019-05-19T00:46:02.005Z,81.60
2019-05-19T00:48:23.287Z,81.50
2019-05-19T00:50:44.803Z,81.50
2019-05-19T00:53:06.298Z,81.50
2019-05-19T00:55:27.782Z,81.80
2019-05-19T00:57:49.110Z,81.70
2019-05-19T01:00:10.984Z,81.60
2019-05-19T01:02:32.571Z,81.60
2019-05-19T01:04:54.230Z,81.80
2019-05-19T01:07:15.724Z,81.70
2019-05-19T01:09:37.306Z,81.70
2019-05-19T01:11:58.836Z,81.90
2019-05-19T01:14:20.621Z,82.80
2019-05-19T01:16:42.006Z,82.40
2019-05-19T01:19:03.443Z,83.00
2019-05-19T01:21:24.932Z,83.70
2019-05-19T01:23:46.322Z,83.30
2019-05-19T01:26:08.258Z,83.30
2019-05-19T01:28:30.050Z,83.40
2019-05-19T01:30:51.540Z,83.40
2019-05-19T01:33:13.154Z,83.40
2019-05-19T01:35:34.645Z,83.40
2019-05-19T01:37:56.348Z,83.60
2019-05-19T01:40:18.242Z,83.80
2019-05-19T01:42:39.976Z,83.80
2019-05-19T01:45:01.992Z,83.90
2019-05-19T01:47:23.300Z,84.00
2019-05-19T01:49:44.672Z,84.20
2019-05-19T01:52:06.169Z,84.20
2019-05-19T01:54:27.895Z,84.40
2019-05-19T01:56:49.288Z,85.30
2019-05-19T01:59:10.884Z,85.30
2019-05-19T02:01:32.338Z,85.40
2019-05-19T02:03:53.719Z,85.70
2019-05-19T02:06:15.109Z,85.80
2019-05-19T02:08:36.786Z,86.20
2019-05-19T02:10:58.255Z,86.50
2019-05-19T02:13:19.860Z,86.50
2019-05-19T02:15:41.266Z,86.60
2019-05-19T02:18:03.061Z,86.80
2019-05-19T02:20:32.909Z,87.00
2019-05-19T02:22:47.674Z,87.40
2019-05-19T02:25:09.202Z,87.60
2019-05-19T02:27:30.815Z,87.50
2019-05-19T02:29:52.115Z,87.60
2019-05-19T02:32:13.641Z,87.60
2019-05-19T02:34:34.938Z,87.60
2019-05-19T02:36:56.345Z,87.60
2019-05-19T02:39:18.371Z,87.60
2019-05-19T02:41:39.827Z,87.80
2019-05-19T02:44:01.312Z,87.70
2019-05-19T02:46:24.199Z,87.80
2019-05-19T02:48:45.574Z,88.00
2019-05-19T02:51:07.162Z,87.90
2019-05-19T02:53:28.835Z,88.00
2019-05-19T02:55:50.239Z,87.90
2019-05-19T02:58:11.845Z,88.00
2019-05-19T03:00:37.994Z,88.00
2019-05-19T03:02:59.463Z,88.00
2019-05-19T03:05:20.837Z,88.20
2019-05-19T03:07:42.364Z,88.30
2019-05-19T03:10:04.150Z,88.50
2019-05-19T03:12:25.538Z,88.30
2019-05-19T03:14:47.158Z,88.20
2019-05-19T03:17:08.758Z,88.40
2019-05-19T03:19:30.133Z,88.50
2019-05-19T03:21:51.753Z,88.30
2019-05-19T03:24:13.267Z,88.30
2019-05-19T03:26:35.143Z,88.00
2019-05-19T03:28:56.557Z,88.10
2019-05-19T03:31:22.632Z,88.00
2019-05-19T03:33:45.811Z,88.10
2019-05-19T03:36:07.107Z,88.30
2019-05-19T03:38:28.599Z,88.30
2019-05-19T03:40:49.928Z,88.40
2019-05-19T03:43:11.218Z,88.60
2019-05-19T03:45:32.805Z,88.50
2019-05-19T03:48:14.078Z,88.60
2019-05-19T03:50:35.368Z,88.30
2019-05-19T03:52:56.862Z,88.20
2019-05-19T03:55:19.495Z,88.30
2019-05-19T03:57:40.987Z,87.90
2019-05-19T04:00:04.857Z,88.20
2019-05-19T04:02:26.487Z,87.50
2019-05-19T04:04:48.250Z,87.30
2019-05-19T04:07:09.530Z,86.90
2019-05-19T04:09:30.957Z,86.70
2019-05-19T04:11:52.459Z,86.10
2019-05-19T04:14:33.585Z,85.60
2019-05-19T04:16:55.067Z,85.60
2019-05-19T04:19:16.394Z,85.20
2019-05-19T04:21:48.272Z,85.00
2019-05-19T04:24:01.278Z,85.00
2019-05-19T04:26:22.601Z,84.80
2019-05-19T04:28:44.205Z,84.80
2019-05-19T04:31:05.709Z,84.10
2019-05-19T04:33:27.133Z,83.70
2019-05-19T04:35:48.407Z,83.20
2019-05-19T04:38:09.692Z,83.20
2019-05-19T04:40:31.245Z,83.20
2019-05-19T04:42:52.799Z,83.20
2019-05-19T04:45:14.290Z,83.80
2019-05-19T04:47:35.927Z,83.80
2019-05-19T04:49:57.416Z,83.80
2019-05-19T04:52:19.014Z,83.30
2019-05-19T04:55:00.276Z,83.00
2019-05-19T04:57:21.716Z,82.40
2019-05-19T04:59:43.292Z,81.90
2019-05-19T05:02:04.635Z,82.60
2019-05-19T05:04:29.334Z,81.10
2019-05-19T05:06:49.437Z,80.50
2019-05-19T05:09:10.945Z,80.30
2019-05-19T05:11:32.531Z,79.30
2019-05-19T05:13:54.015Z,78.00
2019-05-19T05:16:15.349Z,78.60
2019-05-19T05:18:37.635Z,78.50
2019-05-19T05:20:59.000Z,78.00
2019-05-19T05:23:20.422Z,78.00
2019-05-19T05:25:41.829Z,78.10
2019-05-19T05:28:03.322Z,78.10
2019-05-19T05:30:24.838Z,78.10
2019-05-19T05:32:46.232Z,78.20
2019-05-19T05:35:07.710Z,78.90
2019-05-19T05:37:29.234Z,79.10
2019-05-19T05:39:50.882Z,78.80
2019-05-19T05:42:12.255Z,78.90
2019-05-19T05:44:34.225Z,79.10
2019-05-19T05:46:55.631Z,78.90
2019-05-19T05:49:17.110Z,78.90
2019-05-19T05:51:38.978Z,78.30
2019-05-19T05:54:00.542Z,78.40
2019-05-19T05:56:21.836Z,77.50
2019-05-19T05:58:43.312Z,77.30
2019-05-19T06:01:04.806Z,76.40
2019-05-19T06:03:26.201Z,76.00
2019-05-19T06:05:47.867Z,74.90
2019-05-19T06:08:09.409Z,74.70
2019-05-19T06:10:30.917Z,73.70
2019-05-19T06:12:54.497Z,72.90
2019-05-19T06:15:15.762Z,72.50
2019-05-19T06:17:37.159Z,72.70
2019-05-19T06:19:58.794Z,72.10
2019-05-19T06:22:20.188Z,72.10
2019-05-19T06:24:41.553Z,71.50
2019-05-19T06:27:02.859Z,70.60
2019-05-19T06:29:24.439Z,69.90
2019-05-19T06:31:45.931Z,68.90
2019-05-19T06:34:07.581Z,69.10
2019-05-19T06:36:28.852Z,68.90
2019-05-19T06:38:50.289Z,69.60
2019-05-19T06:41:11.787Z,69.70
2019-05-19T06:43:33.075Z,69.70
2019-05-19T06:45:54.562Z,69.40
2019-05-19T06:48:15.977Z,69.90
2019-05-19T06:50:40.668Z,70.60
2019-05-19T06:53:13.575Z,73.30
2019-05-19T06:55:24.063Z,75.00
2019-05-19T06:57:45.433Z,76.20
2019-05-19T07:00:06.824Z,77.50
2019-05-19T07:02:28.351Z,78.00
2019-05-19T07:04:49.722Z,79.20
2019-05-19T07:07:11.123Z,79.90
2019-05-19T07:09:32.546Z,80.50
2019-05-19T07:11:53.954Z,81.50
2019-05-19T07:14:15.241Z,82.50
2019-05-19T07:16:36.827Z,83.30
2019-05-19T07:18:58.109Z,82.90
2019-05-19T07:21:19.403Z,83.20
2019-05-19T07:23:40.903Z,84.00
2019-05-19T07:26:02.396Z,84.70
2019-05-19T07:28:24.298Z,84.70
2019-05-19T07:30:45.809Z,84.80
2019-05-19T07:33:07.099Z,85.20
2019-05-19T07:35:28.601Z,86.20
2019-05-19T07:37:50.030Z,85.40
2019-05-19T07:40:11.402Z,84.00
2019-05-19T07:42:32.896Z,84.40
2019-05-19T07:44:54.405Z,84.70
2019-05-19T07:47:15.681Z,85.10
2019-05-19T07:49:37.174Z,85.10
2019-05-19T07:51:58.833Z,85.10
2019-05-19T07:54:20.286Z,85.30
2019-05-19T07:56:41.554Z,85.10
2019-05-19T07:59:03.064Z,84.80
2019-05-19T08:01:24.348Z,85.10
2019-05-19T08:03:45.838Z,85.60
2019-05-19T08:06:07.746Z,86.50
2019-05-19T08:08:29.125Z,83.90
2019-05-19T08:10:50.578Z,82.80
2019-05-19T08:13:12.104Z,81.70
2019-05-19T08:15:33.514Z,82.70
2019-05-19T08:17:55.113Z,80.70
2019-05-19T08:20:16.658Z,79.70
2019-05-19T08:22:38.236Z,79.50
2019-05-19T08:24:59.524Z,77.00
2019-05-19T08:27:21.068Z,75.90
2019-05-19T08:29:42.751Z,75.00
2019-05-19T08:32:04.250Z,75.80
2019-05-19T08:34:25.626Z,76.00
2019-05-19T08:36:47.209Z,75.80
2019-05-19T08:39:08.814Z,75.90
2019-05-19T08:41:30.321Z,78.20
2019-05-19T08:43:53.359Z,77.90
2019-05-19T08:46:15.012Z,76.70
2019-05-19T08:48:36.448Z,77.10
2019-05-19T08:50:58.034Z,76.00
2019-05-19T08:53:19.423Z,75.10
2019-05-19T08:55:40.847Z,75.30
2019-05-19T08:58:05.092Z,77.10
2019-05-19T09:00:26.742Z,75.60
2019-05-19T09:02:48.057Z,77.00
2019-05-19T09:05:09.461Z,76.90
2019-05-19T09:07:30.846Z,77.00
2019-05-19T09:09:52.271Z,78.60
2019-05-19T09:12:13.781Z,78.60
2019-05-19T09:14:35.368Z,79.80
2019-05-19T09:16:57.003Z,81.80
2019-05-19T09:19:18.295Z,80.80
2019-05-19T09:21:42.108Z,79.20
2019-05-19T09:24:03.501Z,79.70
2019-05-19T09:26:24.886Z,77.80
2019-05-19T09:28:46.374Z,78.30
2019-05-19T09:31:07.818Z,78.20
2019-05-19T09:33:29.204Z,77.10
2019-05-19T09:35:50.608Z,78.60
2019-05-19T09:38:11.925Z,79.70
2019-05-19T09:40:33.341Z,79.90
2019-05-19T09:42:54.963Z,79.10
2019-05-19T09:45:16.422Z,78.20
2019-05-19T09:47:37.962Z,76.00
2019-05-19T09:49:59.420Z,75.30
2019-05-19T09:52:40.866Z,74.80
2019-05-19T09:55:03.747Z,74.70
2019-05-19T09:57:25.143Z,73.30
2019-05-19T09:59:46.586Z,72.50
2019-05-19T10:02:08.232Z,70.90
2019-05-19T10:04:29.706Z,70.10
2019-05-19T10:06:51.144Z,69.40
2019-05-19T10:09:21.616Z,67.70
2019-05-19T10:12:01.934Z,65.90
2019-05-19T10:14:23.420Z,64.40
2019-05-19T10:16:44.708Z,64.50
2019-05-19T10:19:06.607Z,62.40
2019-05-19T10:21:28.099Z,61.30
2019-05-19T10:23:49.499Z,60.80
2019-05-19T10:26:11.244Z,59.80
2019-05-19T10:28:32.825Z,58.30
2019-05-19T10:30:54.926Z,58.10
2019-05-19T10:33:16.201Z,57.30
2019-05-19T10:35:37.811Z,57.30
2019-05-19T10:37:59.240Z,57.90
2019-05-19T10:40:20.719Z,55.80
2019-05-19T10:42:42.215Z,55.00
2019-05-19T10:45:07.333Z,55.00
2019-05-19T10:47:28.810Z,54.40
2019-05-19T10:49:50.399Z,55.30
2019-05-19T10:52:11.828Z,54.70
2019-05-19T10:54:33.416Z,54.70
2019-05-19T10:56:54.912Z,54.30
2019-05-19T10:59:16.320Z,53.90
2019-05-19T11:01:37.512Z,54.80
2019-05-19T11:03:58.918Z,54.90
2019-05-19T11:06:20.415Z,54.90
2019-05-19T11:08:41.741Z,54.10
2019-05-19T11:11:03.249Z,53.80
2019-05-19T11:13:24.750Z,53.10
2019-05-19T11:15:46.092Z,53.30
2019-05-19T11:18:07.362Z,52.70
2019-05-19T11:20:28.976Z,53.10
2019-05-19T11:22:50.858Z,53.80
2019-05-19T11:25:12.463Z,52.30
2019-05-19T11:27:34.182Z,51.70
2019-05-19T11:29:55.513Z,51.30
2019-05-19T11:32:17.120Z,50.60
2019-05-19T11:34:38.503Z,49.70
2019-05-19T11:37:00.123Z,50.40
2019-05-19T11:39:21.668Z,49.80
2019-05-19T11:41:43.055Z,50.80
2019-05-19T11:44:04.514Z,49.10
2019-05-19T11:46:28.558Z,48.50
2019-05-19T11:48:50.267Z,48.00
2019-05-19T11:51:12.022Z,47.50
2019-05-19T11:53:33.618Z,47.30
2019-05-19T11:56:06.081Z,46.70
2019-05-19T11:58:18.196Z,48.30
2019-05-19T12:00:41.268Z,47.30
2019-05-19T12:03:02.855Z,46.90
2019-05-19T12:05:24.310Z,48.50
2019-05-19T12:07:45.618Z,47.00
2019-05-19T12:10:06.917Z,46.70
2019-05-19T12:12:28.795Z,46.30
2019-05-19T12:14:50.295Z,46.60
2019-05-19T12:17:11.779Z,46.90
2019-05-19T12:19:33.322Z,46.60
2019-05-19T12:21:55.558Z,45.80
2019-05-19T12:24:17.300Z,45.30
2019-05-19T12:26:38.783Z,45.60
2019-05-19T12:29:00.195Z,45.80
2019-05-19T12:31:21.735Z,45.90
2019-05-19T12:33:51.686Z,47.60
2019-05-19T12:36:06.290Z,46.30
2019-05-19T12:38:27.763Z,46.50
2019-05-19T12:40:49.146Z,46.00
2019-05-19T12:43:10.846Z,45.80
2019-05-19T12:45:32.490Z,44.70
2019-05-19T12:47:53.970Z,44.90
2019-05-19T12:50:15.594Z,44.70
2019-05-19T12:52:37.195Z,45.00
2019-05-19T12:54:58.726Z,45.30
2019-05-19T12:57:21.351Z,44.20
2019-05-19T12:59:43.153Z,44.30
2019-05-19T13:02:04.765Z,44.60
2019-05-19T13:04:32.128Z,44.50
2019-05-19T13:06:53.547Z,44.00
2019-05-19T13:09:15.247Z,43.80
2019-05-19T13:11:36.978Z,44.20
2019-05-19T13:13:58.595Z,44.50
2019-05-19T13:16:19.992Z,44.80
2019-05-19T13:18:41.567Z,44.80
2019-05-19T13:21:03.120Z,46.00
2019-05-19T13:23:24.413Z,46.10
2019-05-19T13:25:45.862Z,44.20
2019-05-19T13:28:07.245Z,43.30
2019-05-19T13:30:28.653Z,43.80
2019-05-19T13:32:49.960Z,43.50
2019-05-19T13:35:11.258Z,43.90
2019-05-19T13:37:32.770Z,42.90
2019-05-19T13:40:13.954Z,42.40
2019-05-19T13:42:35.610Z,43.60
2019-05-19T13:44:56.872Z,44.10
2019-05-19T13:47:18.172Z,43.80
2019-05-19T13:49:39.562Z,43.40
2019-05-19T13:52:00.798Z,42.50
2019-05-19T13:54:22.407Z,40.50
2019-05-19T13:56:43.733Z,39.90
2019-05-19T13:59:05.245Z,41.10
2019-05-19T14:01:28.915Z,40.10
2019-05-19T14:03:52.155Z,39.40
2019-05-19T14:06:13.121Z,39.90
2019-05-19T14:08:34.922Z,40.20
2019-05-19T14:10:56.480Z,40.30
2019-05-19T14:13:17.771Z,40.60
2019-05-19T14:15:40.744Z,40.00
2019-05-19T14:18:02.191Z,40.00
2019-05-19T14:20:23.708Z,40.90
2019-05-19T14:22:45.165Z,41.10
2019-05-19T14:25:07.074Z,40.10
2019-05-19T14:27:30.727Z,40.10
2019-05-19T14:29:51.601Z,40.50
2019-05-19T14:32:13.143Z,40.40
2019-05-19T14:34:34.718Z,41.90
2019-05-19T14:36:55.999Z,42.00
2019-05-19T14:39:17.449Z,41.90
2019-05-19T14:41:40.635Z,42.20
2019-05-19T14:44:02.443Z,41.90
2019-05-19T14:46:23.967Z,41.70
2019-05-19T14:48:45.353Z,42.40
2019-05-19T14:51:07.057Z,42.50
2019-05-19T14:53:48.330Z,42.50
2019-05-19T14:56:09.612Z,41.90
2019-05-19T14:58:30.993Z,42.70
2019-05-19T15:00:52.541Z,42.70
2019-05-19T15:03:14.033Z,42.90
2019-05-19T15:05:35.671Z,43.00
2019-05-19T15:07:57.100Z,43.10
2019-05-19T15:10:18.473Z,43.10
2019-05-19T15:12:39.973Z,42.70
2019-05-19T15:15:01.800Z,43.00
2019-05-19T15:17:23.177Z,43.40
2019-05-19T15:19:44.473Z,43.20
2019-05-19T15:22:05.806Z,43.00
2019-05-19T15:24:27.583Z,43.00
2019-05-19T15:26:48.861Z,42.80
2019-05-19T15:29:10.620Z,42.00
2019-05-19T15:31:32.005Z,42.30
2019-05-19T15:33:53.409Z,42.20
2019-05-19T15:36:15.168Z,42.80
2019-05-19T15:38:36.552Z,43.10
2019-05-19T15:40:58.499Z,43.00
2019-05-19T15:43:19.900Z,42.90
2019-05-19T15:45:41.232Z,43.40
2019-05-19T15:48:02.639Z,43.40
2019-05-19T15:50:24.166Z,43.70
2019-05-19T15:52:45.850Z,43.80
2019-05-19T15:55:07.366Z,43.90
2019-05-19T15:57:28.857Z,43.80
2019-05-19T15:59:50.775Z,43.90
2019-05-19T16:02:12.278Z,43.20
2019-05-19T16:04:33.594Z,42.80
2019-05-19T16:06:55.630Z,43.00
2019-05-19T16:09:17.077Z,43.10
2019-05-19T16:11:38.608Z,43.70
2019-05-19T16:14:00.198Z,44.30
2019-05-19T16:16:22.010Z,44.80
2019-05-19T16:18:43.533Z,45.10
2019-05-19T16:21:04.810Z,45.30
2019-05-19T16:23:26.133Z,47.10
2019-05-19T16:25:47.657Z,49.50
2019-05-19T16:28:09.096Z,49.20
2019-05-19T16:30:30.478Z,48.90
2019-05-19T16:32:52.431Z,51.50
2019-05-19T16:35:13.932Z,53.30
2019-05-19T16:37:35.665Z,54.10
2019-05-19T16:39:57.197Z,54.90
2019-05-19T16:42:18.632Z,56.10
2019-05-19T16:44:40.173Z,56.70
2019-05-19T16:47:01.949Z,57.40
2019-05-19T16:49:23.785Z,58.40
2019-05-19T16:51:45.463Z,59.90
2019-05-19T16:54:11.555Z,62.70
2019-05-19T16:56:32.953Z,64.80
2019-05-19T16:58:54.437Z,66.30
2019-05-19T17:01:16.055Z,68.30
2019-05-19T17:03:37.456Z,67.20
2019-05-19T17:05:59.073Z,67.90
2019-05-19T17:08:20.667Z,67.90
2019-05-19T17:10:42.071Z,67.90
2019-05-19T17:13:03.663Z,68.10
2019-05-19T17:15:25.095Z,68.30
2019-05-19T17:17:46.378Z,68.40
2019-05-19T17:20:07.880Z,69.50
2019-05-19T17:22:29.318Z,70.60
2019-05-19T17:24:50.733Z,70.60
2019-05-19T17:27:12.346Z,71.00
2019-05-19T17:29:34.158Z,70.80
2019-05-19T17:32:05.685Z,71.30
2019-05-19T17:34:18.857Z,72.50
2019-05-19T17:36:40.160Z,72.60
2019-05-19T17:39:01.767Z,73.10
2019-05-19T17:41:23.334Z,72.90
2019-05-19T17:43:44.853Z,72.80
2019-05-19T17:46:06.343Z,72.10
2019-05-19T17:48:28.012Z,72.40
2019-05-19T17:50:49.313Z,73.50
2019-05-19T17:53:10.678Z,74.20
2019-05-19T17:55:32.416Z,74.80
2019-05-19T17:57:53.857Z,75.10
2019-05-19T18:00:19.061Z,75.60
2019-05-19T18:02:40.606Z,75.60
2019-05-19T18:05:02.686Z,74.60
2019-05-19T18:07:24.073Z,74.00
2019-05-19T18:09:45.455Z,74.70
2019-05-19T18:12:07.049Z,75.00
2019-05-19T18:14:28.448Z,75.70
2019-05-19T18:16:50.081Z,76.00
2019-05-19T18:19:11.561Z,76.40
2019-05-19T18:21:32.947Z,76.20
2019-05-19T18:23:54.458Z,75.30
2019-05-19T18:26:18.619Z,75.10
2019-05-19T18:28:39.900Z,75.40
2019-05-19T18:31:01.480Z,75.50
2019-05-19T18:33:22.819Z,75.20
2019-05-19T18:35:44.309Z,75.50
2019-05-19T18:38:06.017Z,76.30
2019-05-19T18:40:27.305Z,76.70
2019-05-19T18:42:48.898Z,76.80
2019-05-19T18:45:10.333Z,77.20
2019-05-19T18:47:32.130Z,77.70
2019-05-19T18:49:53.734Z,78.10
2019-05-19T18:52:15.163Z,78.20
2019-05-19T18:54:36.638Z,78.70
2019-05-19T18:56:58.269Z,78.80
2019-05-19T18:59:19.685Z,79.00
2019-05-19T19:01:41.296Z,78.70
2019-05-19T19:04:02.887Z,78.20
2019-05-19T19:06:26.714Z,78.30
2019-05-19T19:08:48.414Z,78.00
2019-05-19T19:11:09.933Z,78.30
2019-05-19T19:13:31.552Z,78.60
2019-05-19T19:15:53.039Z,78.50
2019-05-19T19:18:14.537Z,78.40
2019-05-19T19:20:36.128Z,78.20
2019-05-19T19:22:57.558Z,78.10
2019-05-19T19:25:18.949Z,78.50
2019-05-19T19:27:40.400Z,78.20
2019-05-19T19:30:04.132Z,77.80
2019-05-19T19:32:25.654Z,77.40
2019-05-19T19:34:47.114Z,77.20
2019-05-19T19:37:08.587Z,77.60
2019-05-19T19:39:29.973Z,77.30
2019-05-19T19:41:51.385Z,77.10
2019-05-19T19:44:12.893Z,77.30
2019-05-19T19:46:34.427Z,77.40
2019-05-19T19:48:55.690Z,77.40
2019-05-19T19:51:16.979Z,78.10
2019-05-19T19:53:38.661Z,78.10
2019-05-19T19:56:00.189Z,77.60
2019-05-19T19:58:21.748Z,77.80
2019-05-19T20:00:43.564Z,77.40
2019-05-19T20:03:05.551Z,77.30
2019-05-19T20:05:28.360Z,77.30
2019-05-19T20:07:50.275Z,77.20
2019-05-19T20:10:11.561Z,77.00
2019-05-19T20:12:32.944Z,77.20
2019-05-19T20:14:54.561Z,77.30
2019-05-19T20:17:16.049Z,77.60
2019-05-19T20:19:37.560Z,78.30
2019-05-19T20:21:59.176Z,77.80
2019-05-19T20:24:20.770Z,77.90
2019-05-19T20:27:01.942Z,78.70
2019-05-19T20:29:23.433Z,77.20
2019-05-19T20:31:44.693Z,77.10
2019-05-19T20:34:06.118Z,78.80
2019-05-19T20:36:27.522Z,80.10
2019-05-19T20:38:48.921Z,80.40
2019-05-19T20:41:10.367Z,80.50
2019-05-19T20:43:31.768Z,81.40
2019-05-19T20:45:53.149Z,82.00
2019-05-19T20:48:14.461Z,82.80
2019-05-19T20:50:35.938Z,82.50
2019-05-19T20:52:57.531Z,82.80
2019-05-19T20:55:18.954Z,82.90
2019-05-19T20:57:40.363Z,81.60
2019-05-19T21:00:03.140Z,80.20
2019-05-19T21:02:24.670Z,80.50
2019-05-19T21:04:46.155Z,81.60
2019-05-19T21:07:08.550Z,82.70
2019-05-19T21:09:35.943Z,83.00
2019-05-19T21:11:57.232Z,83.60
2019-05-19T21:14:19.202Z,83.20
2019-05-19T21:16:40.647Z,83.30
2019-05-19T21:19:02.266Z,83.30
2019-05-19T21:21:23.721Z,82.90
2019-05-19T21:23:45.014Z,83.00
2019-05-19T21:26:06.287Z,82.10
2019-05-19T21:28:27.684Z,82.90
2019-05-19T21:30:49.000Z,83.30
2019-05-19T21:33:10.374Z,83.20
2019-05-19T21:35:31.650Z,84.30
2019-05-19T21:37:53.064Z,85.10
2019-05-19T21:40:16.432Z,84.60
2019-05-19T21:42:37.819Z,85.10
2019-05-19T21:44:59.230Z,86.60
2019-05-19T21:47:20.660Z,86.70
2019-05-19T21:49:42.234Z,86.70
2019-05-19T21:52:03.676Z,86.90
2019-05-19T21:54:26.013Z,87.20
2019-05-19T21:56:47.377Z,87.50
2019-05-19T21:59:08.833Z,87.00
2019-05-19T22:01:30.338Z,86.90
2019-05-19T22:03:51.846Z,86.20
2019-05-19T22:06:13.859Z,85.80
2019-05-19T22:08:35.268Z,84.30
2019-05-19T22:10:56.874Z,82.80
2019-05-19T22:13:18.406Z,82.50
2019-05-19T22:15:40.007Z,82.80
2019-05-19T22:18:01.416Z,83.50
2019-05-19T22:20:22.956Z,83.60
2019-05-19T22:22:44.328Z,83.20
2019-05-19T22:25:06.208Z,84.40
2019-05-19T22:27:27.758Z,83.90
2019-05-19T22:29:49.341Z,83.60
2019-05-19T22:32:10.849Z,83.90
2019-05-19T22:34:32.670Z,84.30
2019-05-19T22:36:54.075Z,83.80
2019-05-19T22:39:15.548Z,84.90
2019-05-19T22:41:36.984Z,84.50
2019-05-19T22:43:58.274Z,84.90
2019-05-19T22:46:19.558Z,85.40
2019-05-19T22:48:41.086Z,86.00
2019-05-19T22:51:02.712Z,86.60
2019-05-19T22:53:24.709Z,86.60
2019-05-19T22:55:46.339Z,87.20
2019-05-19T22:58:08.006Z,87.60
2019-05-19T23:00:29.378Z,87.30
2019-05-19T23:02:50.937Z,87.80
2019-05-19T23:05:14.297Z,87.90
2019-05-19T23:07:35.592Z,87.80
2019-05-19T23:09:57.125Z,88.10
2019-05-19T23:12:18.396Z,88.60
2019-05-19T23:14:39.880Z,88.00
2019-05-19T23:17:01.415Z,87.80
2019-05-19T23:19:22.722Z,87.80
2019-05-19T23:21:44.660Z,88.20
2019-05-19T23:24:06.001Z,88.10
2019-05-19T23:26:27.560Z,88.40
2019-05-19T23:28:48.965Z,88.40
2019-05-19T23:31:15.754Z,87.60
2019-05-19T23:33:37.338Z,87.30
2019-05-19T23:35:58.735Z,87.80
2019-05-19T23:38:20.063Z,87.40
2019-05-19T23:40:41.541Z,87.90
2019-05-19T23:43:03.072Z,88.00
2019-05-19T23:45:24.603Z,87.90
2019-05-19T23:47:46.302Z,88.30
2019-05-19T23:50:07.690Z,87.90
2019-05-19T23:52:29.434Z,88.00
2019-05-19T23:54:51.030Z,88.20
2019-05-19T23:57:12.541Z,87.90
2019-05-19T23:59:48.880Z,87.80
